Time;durP1;ratioP1;P1;durP2;ratioP2;P2;SDS_P1;SDS_P2;PMS_P1;PMS_P2;Temp;Humidity;BMP_temperature;BMP_pressure;BME280_temperature;BME280_humidity;BME280_pressure;Samples;Min_cycle;Max_cycle;Signal;HPM_P1;HPM_P2
2022/03/11 00:00:25;;;;;;;5.15;3.30;;;;;;;-7.48;69.01;101545.27;1708422;84;20976;-73
2022/03/11 00:02:53;;;;;;;4.12;2.92;;;;;;;-7.45;69.30;101537.70;1708560;83;21464;-72
2022/03/11 00:05:20;;;;;;;4.97;2.67;;;;;;;-7.41;69.04;101538.66;1708300;83;20953;-72
2022/03/11 00:07:47;;;;;;;5.95;2.85;;;;;;;-7.37;69.20;101531.15;1708516;83;21398;-73
2022/03/11 00:10:14;;;;;;;6.53;2.87;;;;;;;-7.30;69.21;101530.49;1708607;84;21980;-71
2022/03/11 00:12:42;;;;;;;3.67;2.87;;;;;;;-7.23;69.02;101537.89;1708379;84;20936;-71
2022/03/11 00:15:09;;;;;;;9.60;3.12;;;;;;;-7.19;68.93;101522.29;1708397;84;21032;-71
2022/03/11 00:17:36;;;;;;;4.05;3.10;;;;;;;-7.18;69.02;101536.36;1708586;83;20873;-71
2022/03/11 00:20:05;;;;;;;5.80;2.50;;;;;;;-7.15;69.09;101526.23;1708477;84;20897;-71
2022/03/11 00:22:33;;;;;;;2.62;2.12;;;;;;;-7.09;69.05;101534.05;1708575;84;21931;-73
2022/03/11 00:25:00;;;;;;;4.60;2.87;;;;;;;-7.03;68.82;101528.66;1704041;83;20964;-73
2022/03/11 00:27:27;;;;;;;2.72;2.30;;;;;;;-7.01;68.79;101521.91;1708581;83;20991;-72
2022/03/11 00:29:54;;;;;;;4.17;2.72;;;;;;;-7.04;68.42;101514.20;1708524;83;21402;-71
2022/03/11 00:32:21;;;;;;;4.35;2.47;;;;;;;-7.06;68.33;101512.88;1708542;83;20960;-71
2022/03/11 00:34:48;;;;;;;4.22;3.10;;;;;;;-7.08;68.25;101519.62;1708484;84;21133;-71
2022/03/11 00:37:15;;;;;;;2.77;2.25;;;;;;;-7.07;68.27;101508.58;1708483;83;20921;-71
2022/03/11 00:39:42;;;;;;;8.28;3.27;;;;;;;-7.05;68.18;101518.83;1708454;84;20897;-71
2022/03/11 00:42:09;;;;;;;6.20;2.30;;;;;;;-6.99;68.08;101522.41;1708490;84;20964;-72
2022/03/11 00:44:39;;;;;;;3.00;2.02;;;;;;;-7.02;67.51;101521.06;1708552;84;20937;-72
2022/03/11 00:47:08;;;;;;;6.17;2.85;;;;;;;-7.15;67.53;101517.31;1708540;83;21671;-72
2022/03/11 00:49:36;;;;;;;5.00;2.37;;;;;;;-7.24;67.93;101523.86;1708396;83;20904;-71
2022/03/11 00:52:04;;;;;;;6.62;3.35;;;;;;;-7.23;68.25;101516.66;1708391;84;20901;-72
2022/03/11 00:54:31;;;;;;;4.53;2.33;;;;;;;-7.17;68.11;101517.68;1708646;84;20992;-71
2022/03/11 00:56:58;;;;;;;6.08;2.80;;;;;;;-7.10;68.09;101519.56;1708552;84;20923;-73
2022/03/11 00:59:24;;;;;;;5.60;3.08;;;;;;;-7.04;67.87;101523.98;1708676;84;21018;-71
2022/03/11 01:01:51;;;;;;;4.35;3.02;;;;;;;-6.97;67.74;101504.61;1708481;84;21004;-71
2022/03/11 01:04:18;;;;;;;7.10;3.02;;;;;;;-6.96;67.71;101512.30;1708415;84;20921;-71
2022/03/11 01:06:45;;;;;;;4.53;2.35;;;;;;;-6.90;67.63;101511.58;1713387;83;21327;-71
2022/03/11 01:09:12;;;;;;;4.45;2.65;;;;;;;-6.87;67.47;101512.92;1714088;83;20956;-72
2022/03/11 01:11:39;;;;;;;4.87;2.37;;;;;;;-6.88;67.65;101513.34;1714272;83;21519;-72
2022/03/11 01:14:05;;;;;;;4.00;2.52;;;;;;;-6.84;67.45;101511.75;1713936;83;20897;-72
2022/03/11 01:16:32;;;;;;;5.17;3.15;;;;;;;-6.84;67.56;101509.20;1714127;83;21007;-72
2022/03/11 01:19:01;;;;;;;4.92;3.05;;;;;;;-6.86;67.49;101515.09;1714025;83;20952;-70
2022/03/11 01:21:29;;;;;;;3.98;2.80;;;;;;;-6.90;67.41;101512.86;1714107;83;21019;-73
2022/03/11 01:23:55;;;;;;;4.85;3.33;;;;;;;-6.93;67.30;101506.00;1714121;83;21163;-72
2022/03/11 01:26:22;;;;;;;3.27;2.30;;;;;;;-6.96;67.34;101507.20;1714093;83;20897;-72
2022/03/11 01:28:50;;;;;;;5.17;2.90;;;;;;;-7.05;67.27;101509.48;1714297;83;20964;-72
2022/03/11 01:31:17;;;;;;;2.47;2.15;;;;;;;-7.09;67.26;101517.91;1714210;83;20948;-72
2022/03/11 01:33:45;;;;;;;3.25;2.22;;;;;;;-7.10;67.29;101508.09;1714297;83;20913;-73
2022/03/11 01:36:12;;;;;;;3.52;2.47;;;;;;;-7.12;67.42;101493.17;1714527;83;21124;-72
2022/03/11 01:38:39;;;;;;;4.22;2.40;;;;;;;-7.17;67.59;101508.77;1714284;83;20980;-72
2022/03/11 01:41:06;;;;;;;3.15;2.60;;;;;;;-7.12;67.60;101508.88;1714234;83;20948;-71
2022/03/11 01:44:00;;;;;;;4.10;2.70;;;;;;;-7.05;67.72;101503.53;1714438;83;20917;-72
2022/03/11 01:46:28;;;;;;;3.50;2.08;;;;;;;-6.99;67.50;101514.75;1714212;83;21066;-71
2022/03/11 01:48:56;;;;;;;4.33;2.98;;;;;;;-6.99;67.28;101504.56;1714529;83;21406;-72
2022/03/11 01:51:27;;;;;;;4.72;2.58;;;;;;;-6.98;67.39;101511.40;1714106;83;20905;-72
2022/03/11 01:53:54;;;;;;;5.95;3.20;;;;;;;-6.94;67.23;101507.22;1714227;83;20893;-72
2022/03/11 01:56:23;;;;;;;7.17;2.50;;;;;;;-6.92;67.12;101507.70;1714168;83;20956;-71
2022/03/11 01:58:54;;;;;;;5.62;2.77;;;;;;;-6.89;67.00;101510.77;1714190;83;21489;-72
2022/03/11 02:01:22;;;;;;;4.58;2.95;;;;;;;-6.93;66.81;101512.38;1714254;83;21155;-71
2022/03/11 02:03:51;;;;;;;4.30;2.77;;;;;;;-6.93;67.03;101507.27;1714132;83;20996;-70
2022/03/11 02:06:19;;;;;;;4.70;2.72;;;;;;;-6.96;67.02;101515.24;1714125;83;21505;-73
2022/03/11 02:08:47;;;;;;;7.62;2.87;;;;;;;-7.03;67.24;101498.92;1714569;83;20944;-73
2022/03/11 02:11:14;;;;;;;6.65;2.60;;;;;;;-7.06;67.22;101514.56;1714179;83;20949;-72
2022/03/11 02:13:51;;;;;;;2.50;2.30;;;;;;;-7.06;67.35;101523.48;1714255;83;21551;-72
2022/03/11 02:16:23;;;;;;;6.92;3.47;;;;;;;-7.05;67.21;101529.02;1714221;83;20865;-71
2022/03/11 02:18:51;;;;;;;4.03;2.67;;;;;;;-7.13;67.09;101522.05;1714200;83;20925;-73
2022/03/11 02:21:20;;;;;;;5.35;2.62;;;;;;;-7.18;67.67;101513.42;1714431;83;20952;-73
2022/03/11 02:23:52;;;;;;;5.53;3.47;;;;;;;-7.16;67.81;101521.08;1714132;83;20905;-71
2022/03/11 02:26:22;;;;;;;4.15;2.72;;;;;;;-7.11;67.90;101519.13;1714424;83;21960;-71
2022/03/11 02:28:51;;;;;;;3.77;2.75;;;;;;;-7.04;67.96;101516.75;1714048;83;21031;-71
2022/03/11 02:31:19;;;;;;;5.70;3.55;;;;;;;-6.98;67.79;101520.32;1714130;83;20921;-72
2022/03/11 02:33:46;;;;;;;6.97;3.45;;;;;;;-6.95;67.20;101525.91;1714123;83;20920;-72
2022/03/11 02:36:13;;;;;;;9.03;3.20;;;;;;;-7.02;67.37;101513.83;1714491;83;20889;-71
2022/03/11 02:38:41;;;;;;;5.20;3.27;;;;;;;-7.03;67.39;101529.93;1714148;83;21656;-72
2022/03/11 02:41:07;;;;;;;4.47;3.40;;;;;;;-7.09;67.49;101525.55;1714173;83;20869;-72
2022/03/11 02:43:36;;;;;;;7.80;3.12;;;;;;;-7.14;67.74;101521.58;1714178;83;21394;-72
2022/03/11 02:46:03;;;;;;;6.22;3.27;;;;;;;-7.18;67.77;101524.89;1714133;83;20956;-71
2022/03/11 02:48:31;;;;;;;5.45;3.12;;;;;;;-7.20;67.53;101529.47;1714142;83;21019;-72
2022/03/11 02:50:58;;;;;;;4.35;3.22;;;;;;;-7.27;67.61;101532.25;1714238;83;21256;-72
2022/03/11 02:53:25;;;;;;;8.45;3.80;;;;;;;-7.31;68.02;101532.60;1714051;83;20897;-71
2022/03/11 02:55:52;;;;;;;5.35;2.50;;;;;;;-7.28;67.93;101530.55;1714107;83;21515;-71
2022/03/11 02:58:20;;;;;;;5.62;2.55;;;;;;;-7.32;67.75;101528.73;1714187;83;21486;-73
2022/03/11 03:00:47;;;;;;;4.20;3.08;;;;;;;-7.37;67.95;101525.20;1714485;83;20917;-72
2022/03/11 03:03:14;;;;;;;7.78;3.22;;;;;;;-7.36;68.14;101528.19;1714093;83;21808;-72
2022/03/11 03:05:42;;;;;;;6.08;3.35;;;;;;;-7.33;67.85;101527.88;1714055;83;21552;-73
2022/03/11 03:08:08;;;;;;;3.42;2.67;;;;;;;-7.36;67.95;101529.45;1714311;83;20972;-73
2022/03/11 03:10:35;;;;;;;5.10;2.98;;;;;;;-7.39;67.96;101540.84;1714083;83;20871;-72
2022/03/11 03:13:03;;;;;;;6.15;3.10;;;;;;;-7.39;68.03;101532.78;1714230;83;20952;-72
2022/03/11 03:15:32;;;;;;;7.72;3.20;;;;;;;-7.37;67.93;101530.30;1714223;83;21144;-72
2022/03/11 03:18:00;;;;;;;5.28;3.08;;;;;;;-7.34;67.93;101536.31;1714066;83;21015;-72
2022/03/11 03:20:27;;;;;;;5.62;2.98;;;;;;;-7.31;67.84;101540.25;1714132;83;20853;-72
2022/03/11 03:22:56;;;;;;;5.72;3.35;;;;;;;-7.28;67.91;101544.56;1714130;83;20897;-73
2022/03/11 03:25:24;;;;;;;4.30;2.80;;;;;;;-7.23;67.79;101540.86;1714166;83;20972;-72
2022/03/11 03:27:53;;;;;;;5.65;3.00;;;;;;;-7.20;67.64;101548.19;1714192;83;20961;-72
2022/03/11 03:30:20;;;;;;;6.15;3.35;;;;;;;-7.20;67.79;101541.82;1714107;83;20956;-72
2022/03/11 03:32:47;;;;;;;4.92;3.37;;;;;;;-7.20;67.67;101546.03;1714096;83;21458;-72
2022/03/11 03:35:14;;;;;;;4.20;2.92;;;;;;;-7.19;67.97;101542.26;1714322;83;21189;-72
2022/03/11 03:37:41;;;;;;;3.40;2.60;;;;;;;-7.15;67.93;101549.59;1714069;83;20964;-73
2022/03/11 03:40:10;;;;;;;3.67;2.62;;;;;;;-7.13;68.13;101551.35;1714142;83;22182;-72
2022/03/11 03:42:37;;;;;;;7.10;3.52;;;;;;;-7.10;68.40;101554.39;1714263;83;20889;-74
2022/03/11 03:45:06;;;;;;;6.75;3.77;;;;;;;-7.14;68.50;101549.61;1714466;83;20984;-72
2022/03/11 03:47:33;;;;;;;4.85;2.75;;;;;;;-7.12;68.74;101553.06;1714233;83;20948;-71
2022/03/11 03:50:01;;;;;;;5.87;3.05;;;;;;;-7.12;68.89;101550.52;1714176;83;20952;-72
2022/03/11 03:52:30;;;;;;;5.33;2.58;;;;;;;-7.12;68.80;101553.06;1714177;83;21159;-72
2022/03/11 03:54:57;;;;;;;4.47;3.05;;;;;;;-7.15;68.81;101556.81;1714299;83;20873;-74
2022/03/11 03:57:25;;;;;;;7.55;3.47;;;;;;;-7.12;69.37;101561.98;1714048;83;20932;-74
2022/03/11 03:59:52;;;;;;;3.70;3.10;;;;;;;-6.98;69.46;101565.32;1714077;83;20928;-72
2022/03/11 04:02:20;;;;;;;12.55;4.00;;;;;;;-6.86;69.06;101572.45;1714113;83;20956;-72
2022/03/11 04:04:47;;;;;;;6.03;3.95;;;;;;;-6.85;68.56;101575.02;1714018;83;21256;-73
2022/03/11 04:07:14;;;;;;;6.58;3.62;;;;;;;-6.90;68.72;101573.63;1714004;83;20846;-72
2022/03/11 04:09:41;;;;;;;5.83;3.35;;;;;;;-6.85;68.96;101576.72;1714192;83;20885;-73
2022/03/11 04:12:09;;;;;;;4.72;3.33;;;;;;;-6.78;68.92;101582.42;1714155;83;20984;-73
2022/03/11 04:14:38;;;;;;;5.42;3.77;;;;;;;-6.79;68.66;101582.84;1714226;83;21394;-74
2022/03/11 04:17:04;;;;;;;6.22;3.62;;;;;;;-6.77;69.09;101579.06;1714243;83;22275;-73
2022/03/11 04:19:31;;;;;;;8.20;3.65;;;;;;;-6.69;69.00;101577.59;1714482;83;21349;-72
2022/03/11 04:21:58;;;;;;;9.88;4.10;;;;;;;-6.63;68.97;101580.27;1714254;83;20912;-74
2022/03/11 04:24:25;;;;;;;5.47;3.70;;;;;;;-6.57;68.93;101584.69;1714111;83;21429;-73
2022/03/11 04:26:52;;;;;;;7.60;4.50;;;;;;;-6.49;68.70;101588.27;1714191;83;20968;-73
2022/03/11 04:29:20;;;;;;;5.70;3.50;;;;;;;-6.46;68.46;101588.38;1714165;83;21278;-73
2022/03/11 04:31:47;;;;;;;7.08;3.60;;;;;;;-6.42;68.39;101586.73;1713984;83;20936;-73
2022/03/11 04:34:14;;;;;;;5.12;3.10;;;;;;;-6.37;68.24;101580.94;1714146;83;20901;-72
2022/03/11 04:36:41;;;;;;;6.20;3.12;;;;;;;-6.35;68.02;101592.05;1713997;83;20996;-73
2022/03/11 04:39:08;;;;;;;7.97;3.67;;;;;;;-6.34;67.92;101593.77;1714184;83;20992;-74
2022/03/11 04:41:35;;;;;;;4.95;3.47;;;;;;;-6.37;67.76;101594.98;1714192;83;21099;-73
2022/03/11 04:44:02;;;;;;;7.72;3.65;;;;;;;-6.35;68.09;101600.13;1714067;83;20995;-75
2022/03/11 04:46:30;;;;;;;8.18;3.52;;;;;;;-6.29;67.85;101604.97;1714293;83;20897;-74
2022/03/11 04:48:57;;;;;;;6.87;3.62;;;;;;;-6.22;67.70;101618.75;1714358;83;21435;-73
2022/03/11 04:51:25;;;;;;;5.97;3.58;;;;;;;-6.23;67.10;101612.32;1714275;83;20889;-73
2022/03/11 04:53:53;;;;;;;4.10;3.25;;;;;;;-6.31;67.01;101613.00;1714174;83;21275;-73
2022/03/11 04:56:20;;;;;;;3.85;2.87;;;;;;;-6.34;67.08;101617.16;1714074;83;20921;-73
2022/03/11 04:58:47;;;;;;;8.38;3.98;;;;;;;-6.36;67.49;101615.83;1714027;83;20885;-73
2022/03/11 05:01:15;;;;;;;6.28;2.95;;;;;;;-6.33;67.28;101617.20;1714160;83;20960;-74
2022/03/11 05:03:41;;;;;;;4.55;3.60;;;;;;;-6.31;67.39;101609.17;1714470;83;20981;-73
2022/03/11 05:06:08;;;;;;;6.78;3.27;;;;;;;-6.19;67.57;101620.09;1714103;83;21958;-74
2022/03/11 05:08:35;;;;;;;7.62;4.47;;;;;;;-6.06;67.23;101623.81;1714080;83;20944;-73
2022/03/11 05:11:02;;;;;;;8.33;3.72;;;;;;;-6.07;66.63;101621.68;1714291;83;20995;-72
2022/03/11 05:13:29;;;;;;;11.10;4.30;;;;;;;-6.14;66.93;101623.61;1714096;83;21032;-74
2022/03/11 05:15:56;;;;;;;7.95;4.37;;;;;;;-6.10;66.88;101626.69;1714084;83;20916;-73
2022/03/11 05:20:59;;;;;;;6.85;3.27;;;;;;;-5.89;66.73;101642.92;1816445;79;22344;-74
2022/03/11 05:23:26;;;;;;;5.95;3.72;;;;;;;-5.89;66.56;101631.44;1789708;80;20946;-74
2022/03/11 05:25:54;;;;;;;6.10;3.62;;;;;;;-5.80;66.48;101640.12;1789493;80;21155;-73
2022/03/11 05:28:22;;;;;;;6.03;3.90;;;;;;;-5.69;66.09;101638.67;1789480;80;21449;-74
2022/03/11 05:30:49;;;;;;;10.75;4.58;;;;;;;-5.68;65.80;101655.33;1789825;80;20933;-74
2022/03/11 05:33:18;;;;;;;7.65;3.45;;;;;;;-5.64;65.50;101651.16;1789435;80;20947;-74
2022/03/11 05:35:47;;;;;;;6.22;3.50;;;;;;;-5.62;64.74;101653.34;1789496;80;20861;-74
2022/03/11 05:38:15;;;;;;;9.80;4.20;;;;;;;-5.72;64.78;101653.52;1789530;80;21489;-74
2022/03/11 05:40:42;;;;;;;6.03;3.40;;;;;;;-5.72;64.73;101661.19;1789493;80;20943;-72
2022/03/11 05:43:09;;;;;;;6.20;3.98;;;;;;;-5.76;64.06;101663.63;1789537;79;20888;-74
2022/03/11 05:45:39;;;;;;;9.05;4.25;;;;;;;-5.79;64.12;101668.69;1789509;80;20876;-74
2022/03/11 05:48:06;;;;;;;5.35;4.25;;;;;;;-5.79;63.75;101661.02;1789590;80;21068;-74
2022/03/11 05:50:34;;;;;;;7.05;4.47;;;;;;;-5.81;63.55;101663.53;1789404;80;21555;-74
2022/03/11 05:53:03;;;;;;;9.33;3.90;;;;;;;-5.83;63.76;101662.62;1789403;80;20923;-74
2022/03/11 05:55:30;;;;;;;7.25;4.75;;;;;;;-5.76;64.22;101665.77;1789434;80;21010;-74
2022/03/11 05:57:57;;;;;;;7.70;4.70;;;;;;;-5.63;63.69;101662.67;1789484;80;20935;-73
2022/03/11 06:00:25;;;;;;;6.03;4.33;;;;;;;-5.52;63.22;101667.17;1789422;80;20923;-74
2022/03/11 06:02:52;;;;;;;7.78;4.22;;;;;;;-5.49;63.21;101666.84;1789445;80;21789;-74
2022/03/11 06:05:19;;;;;;;7.42;4.00;;;;;;;-5.39;63.09;101663.22;1789345;80;20872;-74
2022/03/11 06:07:48;;;;;;;6.30;4.28;;;;;;;-5.28;62.59;101673.26;1789488;80;20919;-73
2022/03/11 06:10:15;;;;;;;6.87;4.15;;;;;;;-5.32;62.42;101674.88;1789500;80;20971;-73
2022/03/11 06:12:42;;;;;;;10.93;5.40;;;;;;;-5.38;62.35;101673.87;1789448;79;21073;-74
2022/03/11 06:15:15;;;;;;;6.28;4.47;;;;;;;-5.37;62.68;101677.75;1789427;80;21102;-74
2022/03/11 06:17:42;;;;;;;4.80;3.60;;;;;;;-5.25;62.53;101682.27;1789433;80;20967;-73
2022/03/11 06:20:12;;;;;;;7.08;4.12;;;;;;;-5.21;62.31;101683.64;1786561;80;21452;-74
2022/03/11 06:22:50;;;;;;;7.95;4.87;;;;;;;-5.21;62.55;101687.89;1784153;80;21405;-73
2022/03/11 06:25:17;;;;;;;4.90;3.20;;;;;;;-5.13;62.78;101687.66;1784206;80;21469;-74
2022/03/11 06:27:45;;;;;;;7.72;3.98;;;;;;;-5.03;62.09;101685.72;1784628;80;21211;-73
2022/03/11 06:30:12;;;;;;;15.70;6.78;;;;;;;-5.11;62.26;101686.00;1784071;80;21579;-74
2022/03/11 06:32:43;;;;;;;7.12;5.28;;;;;;;-5.13;62.40;101680.41;1783568;80;21409;-74
2022/03/11 06:35:10;;;;;;;9.15;4.40;;;;;;;-5.08;62.64;101679.66;1783224;80;21330;-74
2022/03/11 06:37:38;;;;;;;10.43;4.70;;;;;;;-5.03;62.57;101683.16;1783530;80;20924;-74
2022/03/11 06:40:08;;;;;;;8.23;5.25;;;;;;;-4.93;62.65;101681.69;1783521;80;21811;-74
2022/03/11 06:42:38;;;;;;;7.85;4.28;;;;;;;-4.81;62.57;101680.64;1783756;80;21409;-74
2022/03/11 06:45:06;;;;;;;8.18;4.72;;;;;;;-4.73;62.41;101679.95;1783542;80;20900;-74
2022/03/11 06:47:33;;;;;;;7.97;4.33;;;;;;;-4.63;62.71;101678.86;1783843;80;21007;-75
2022/03/11 06:50:00;;;;;;;8.65;5.40;;;;;;;-4.48;62.48;101678.72;1783604;80;20884;-74
2022/03/11 06:52:27;;;;;;;8.80;5.15;;;;;;;-4.43;61.86;101678.38;1783950;80;21117;-76
2022/03/11 06:54:54;;;;;;;6.83;4.42;;;;;;;-4.45;61.72;101671.08;1783556;80;21421;-75
2022/03/11 06:57:21;;;;;;;6.12;4.58;;;;;;;-4.46;61.50;101676.63;1783623;80;20939;-74
2022/03/11 06:59:48;;;;;;;8.38;4.65;;;;;;;-4.50;61.60;101677.83;1783870;80;20944;-75
2022/03/11 07:02:16;;;;;;;9.08;5.05;;;;;;;-4.52;61.91;101682.05;1783590;80;21448;-74
2022/03/11 07:04:45;;;;;;;6.85;4.53;;;;;;;-4.48;61.94;101679.58;1783610;80;20960;-74
2022/03/11 07:07:13;;;;;;;6.42;3.65;;;;;;;-4.48;61.70;101685.98;1783509;80;21378;-75
2022/03/11 07:09:41;;;;;;;4.72;3.30;;;;;;;-4.58;62.05;101682.78;1783542;80;20888;-75
2022/03/11 07:12:09;;;;;;;6.53;3.90;;;;;;;-4.65;62.68;101684.36;1783679;80;20896;-74
2022/03/11 07:14:37;;;;;;;9.23;4.65;;;;;;;-4.67;62.87;101690.28;1783579;80;20884;-74
2022/03/11 07:17:05;;;;;;;10.53;5.42;;;;;;;-4.61;63.18;101690.41;1783590;80;20989;-75
2022/03/11 07:19:33;;;;;;;7.70;4.95;;;;;;;-4.49;63.11;101696.17;1782170;80;21130;-74
2022/03/11 07:22:03;;;;;;;6.60;5.03;;;;;;;-4.41;62.81;101687.80;1775228;80;20876;-73
2022/03/11 07:24:31;;;;;;;7.58;4.25;;;;;;;-4.38;63.06;101695.56;1775279;80;21003;-74
2022/03/11 07:27:00;;;;;;;7.33;4.05;;;;;;;-4.25;62.99;101685.11;1775307;80;20923;-74
2022/03/11 07:29:27;;;;;;;8.13;4.83;;;;;;;-4.19;61.97;101686.92;1775529;80;21461;-73
2022/03/11 07:31:55;;;;;;;9.38;4.70;;;;;;;-4.26;62.35;101686.38;1775178;80;21303;-73
2022/03/11 07:34:23;;;;;;;11.38;4.92;;;;;;;-4.20;63.04;101683.52;1775305;80;20975;-73
2022/03/11 07:36:50;;;;;;;8.28;3.87;;;;;;;-4.03;62.29;101688.05;1775496;80;20981;-73
2022/03/11 07:39:17;;;;;;;5.55;4.00;;;;;;;-3.95;61.52;101680.09;1775365;80;20940;-73
2022/03/11 07:41:44;;;;;;;7.00;4.28;;;;;;;-3.99;60.65;101677.03;1775285;80;21528;-74
2022/03/11 07:44:11;;;;;;;7.78;5.03;;;;;;;-4.01;60.86;101683.39;1775431;80;20916;-73
2022/03/11 07:46:39;;;;;;;8.83;4.40;;;;;;;-3.88;60.58;101688.31;1775241;80;20904;-73
2022/03/11 07:49:06;;;;;;;7.25;3.90;;;;;;;-3.69;59.43;101686.04;1775595;80;20929;-73
2022/03/11 07:51:33;;;;;;;9.55;5.03;;;;;;;-3.70;58.85;101687.75;1775466;80;20963;-74
2022/03/11 07:54:02;;;;;;;8.53;3.92;;;;;;;-3.80;58.79;101689.31;1775393;80;20869;-72
2022/03/11 07:56:29;;;;;;;6.65;4.10;;;;;;;-3.92;58.96;101697.20;1775302;80;21295;-74
2022/03/11 07:58:57;;;;;;;7.50;4.70;;;;;;;-3.97;59.21;101699.70;1775624;80;21378;-74
2022/03/11 08:01:24;;;;;;;4.85;3.77;;;;;;;-3.99;59.48;101689.41;1775230;80;21441;-73
2022/03/11 08:03:50;;;;;;;7.83;4.40;;;;;;;-3.88;59.21;101689.59;1775546;80;21330;-73
2022/03/11 08:06:19;;;;;;;7.30;4.95;;;;;;;-3.73;59.34;101693.23;1775376;80;21378;-73
2022/03/11 08:08:46;;;;;;;7.65;4.12;;;;;;;-3.58;58.61;101696.92;1775318;80;20877;-72
2022/03/11 08:11:14;;;;;;;7.85;4.97;;;;;;;-3.43;58.57;101692.86;1775215;80;20917;-74
2022/03/11 08:13:41;;;;;;;6.03;4.15;;;;;;;-3.22;58.41;101697.45;1775293;80;20932;-73
2022/03/11 08:16:08;;;;;;;7.72;5.12;;;;;;;-2.98;58.02;101695.61;1775202;80;20908;-74
2022/03/11 08:18:37;;;;;;;8.73;5.60;;;;;;;-2.84;57.45;101694.09;1775287;80;20881;-73
2022/03/11 08:21:04;;;;;;;8.80;5.08;;;;;;;-2.65;57.65;101699.45;1775053;80;20975;-73
2022/03/11 08:23:31;;;;;;;6.78;4.10;;;;;;;-2.41;56.48;101705.29;1775239;80;20892;-74
2022/03/11 08:25:58;;;;;;;11.40;4.58;;;;;;;-2.39;56.33;101692.90;1775376;80;20909;-74
2022/03/11 08:28:25;;;;;;;6.95;4.47;;;;;;;-2.37;56.49;101696.34;1775536;80;21409;-74
2022/03/11 08:30:55;;;;;;;7.37;4.20;;;;;;;-2.30;56.79;101701.98;1775240;80;21469;-73
2022/03/11 08:33:24;;;;;;;7.65;5.58;;;;;;;-2.18;57.01;101703.84;1775231;80;21015;-74
2022/03/11 08:35:51;;;;;;;13.60;5.12;;;;;;;-2.06;56.30;101703.08;1775246;80;20915;-74
2022/03/11 08:38:19;;;;;;;7.72;6.03;;;;;;;-2.01;55.77;101701.41;1775190;80;21010;-74
2022/03/11 08:40:47;;;;;;;8.95;5.58;;;;;;;-1.97;55.79;101699.73;1775302;80;20853;-73
2022/03/11 08:43:15;;;;;;;7.80;4.40;;;;;;;-1.88;55.71;101704.95;1775280;80;21088;-74
2022/03/11 08:45:43;;;;;;;5.35;3.85;;;;;;;-1.87;55.60;101715.66;1775463;80;20834;-75
2022/03/11 08:48:12;;;;;;;11.40;5.00;;;;;;;-1.88;55.71;101717.81;1775205;80;20842;-74
2022/03/11 08:50:39;;;;;;;9.38;6.00;;;;;;;-1.85;56.09;101720.39;1775377;80;20889;-74
2022/03/11 08:53:09;;;;;;;14.13;4.92;;;;;;;-1.89;56.14;101719.92;1775370;80;20916;-74
2022/03/11 08:55:37;;;;;;;8.08;4.87;;;;;;;-2.07;56.52;101723.62;1775329;80;21170;-74
2022/03/11 08:58:05;;;;;;;7.28;5.05;;;;;;;-2.19;57.19;101719.23;1775156;80;20983;-75
2022/03/11 09:00:34;;;;;;;9.95;4.37;;;;;;;-2.28;57.41;101708.42;1775133;80;21382;-73
2022/03/11 09:03:01;;;;;;;5.47;4.25;;;;;;;-2.38;57.74;101717.75;1775310;80;20912;-74
2022/03/11 09:05:28;;;;;;;7.25;4.75;;;;;;;-2.45;58.23;101721.08;1775272;80;20869;-74
2022/03/11 09:07:56;;;;;;;6.87;4.53;;;;;;;-2.52;58.75;101726.56;1775562;80;21607;-74
2022/03/11 09:10:23;;;;;;;8.23;4.35;;;;;;;-2.43;58.66;101731.38;1775294;80;20975;-75
2022/03/11 09:12:50;;;;;;;7.60;4.75;;;;;;;-2.19;58.42;101728.22;1772324;80;21437;-75
2022/03/11 09:15:18;;;;;;;6.65;4.78;;;;;;;-1.91;57.93;101733.22;1775244;80;21418;-74
2022/03/11 09:17:46;;;;;;;7.47;5.08;;;;;;;-1.59;56.42;101736.48;1775170;80;21363;-74
2022/03/11 09:20:14;;;;;;;7.67;5.00;;;;;;;-1.64;55.83;101722.31;1776236;80;21273;-74
2022/03/11 09:22:42;;;;;;;5.90;4.83;;;;;;;-1.71;56.32;101723.97;1783630;80;20971;-75
2022/03/11 09:25:11;;;;;;;9.55;4.92;;;;;;;-1.48;56.12;101730.56;1783660;80;20955;-75
2022/03/11 09:27:39;;;;;;;7.97;4.47;;;;;;;-1.23;55.34;101733.31;1783672;80;20861;-74
2022/03/11 09:30:08;;;;;;;5.17;4.58;;;;;;;-1.13;53.78;101741.97;1783725;80;21421;-74
2022/03/11 09:32:37;;;;;;;8.13;4.95;;;;;;;-1.26;54.04;101741.02;1783754;80;20919;-75
2022/03/11 09:35:08;;;;;;;8.35;5.45;;;;;;;-1.30;54.53;101731.13;1783707;80;20932;-74
2022/03/11 09:37:37;;;;;;;5.45;4.35;;;;;;;-1.06;54.21;101739.86;1784096;80;20987;-75
2022/03/11 09:40:10;;;;;;;6.20;4.45;;;;;;;-0.97;53.58;101737.34;1783815;80;20940;-75
2022/03/11 09:42:37;;;;;;;5.55;4.42;;;;;;;-0.95;53.54;101739.50;1783765;80;21366;-75
2022/03/11 09:45:07;;;;;;;7.95;5.85;;;;;;;-0.80;53.09;101731.41;1783778;80;21631;-74
2022/03/11 09:47:39;;;;;;;7.75;4.80;;;;;;;-0.79;53.24;101731.42;1783579;80;20924;-73
2022/03/11 09:50:07;;;;;;;9.10;4.87;;;;;;;-0.55;53.46;101736.27;1783709;80;20964;-75
2022/03/11 09:52:36;;;;;;;6.80;4.65;;;;;;;-0.36;52.97;101739.74;1783692;80;21448;-75
2022/03/11 09:55:05;;;;;;;5.90;4.92;;;;;;;-0.23;52.23;101737.20;1784135;80;21500;-75
2022/03/11 09:57:34;;;;;;;8.18;5.37;;;;;;;-0.38;51.85;101740.16;1783676;80;21183;-75
2022/03/11 10:00:01;;;;;;;8.53;5.08;;;;;;;-0.61;51.96;101734.50;1783709;80;20852;-74
2022/03/11 10:02:28;;;;;;;10.20;5.85;;;;;;;-0.76;52.34;101738.30;1783910;80;21306;-74
2022/03/11 10:04:57;;;;;;;10.00;5.40;;;;;;;-0.84;52.47;101747.28;1783579;80;20983;-74
2022/03/11 10:07:27;;;;;;;7.50;4.35;;;;;;;-0.93;52.84;101739.52;1783806;80;20896;-75
2022/03/11 10:09:55;;;;;;;8.48;5.40;;;;;;;-1.19;53.26;101739.35;1783773;80;22258;-74
2022/03/11 10:12:29;;;;;;;9.15;5.05;;;;;;;-1.33;53.55;101738.83;1783790;80;21435;-75
2022/03/11 10:15:03;;;;;;;9.08;5.05;;;;;;;-1.32;53.83;101738.40;1784000;80;20916;-75
2022/03/11 10:17:43;;;;;;;7.30;5.60;;;;;;;-1.30;53.92;101739.27;1783861;80;20973;-75
2022/03/11 10:20:15;;;;;;;5.78;4.37;;;;;;;-1.11;53.54;101745.39;1783855;80;20907;-74
2022/03/11 10:22:46;;;;;;;9.93;5.42;;;;;;;-0.85;53.16;101745.11;1783547;80;21303;-75
2022/03/11 10:25:25;;;;;;;8.15;5.00;;;;;;;-0.77;53.62;101751.61;1783701;80;20987;-74
2022/03/11 10:28:03;;;;;;;7.33;5.03;;;;;;;-0.58;52.14;101736.23;1755810;80;21058;-74
2022/03/11 10:30:34;;;;;;;5.47;4.58;;;;;;;-0.54;51.96;101732.38;1783779;80;21366;-74
2022/03/11 10:33:06;;;;;;;9.83;5.67;;;;;;;-0.53;51.71;101737.98;1784226;80;21030;-74
2022/03/11 10:35:37;;;;;;;7.22;5.08;;;;;;;-0.67;51.75;101731.49;1783702;80;20928;-75
2022/03/11 10:38:14;;;;;;;6.17;4.83;;;;;;;-0.67;51.97;101737.94;1783771;80;21393;-74
2022/03/11 10:40:57;;;;;;;7.22;5.08;;;;;;;-0.58;51.28;101725.48;1783784;80;20887;-74
2022/03/11 10:43:30;;;;;;;9.05;5.58;;;;;;;-0.35;51.53;101750.50;1783731;80;20991;-73
2022/03/11 10:46:10;;;;;;;5.40;4.40;;;;;;;-0.16;51.28;101748.39;1783866;80;21033;-76
2022/03/11 10:48:49;;;;;;;11.43;5.95;;;;;;;-0.06;50.51;101737.25;1783851;80;21064;-74
2022/03/11 10:51:33;;;;;;;6.75;5.00;;;;;;;-0.42;50.66;101725.14;1782917;80;21449;-72
2022/03/11 10:54:06;;;;;;;11.43;4.60;;;;;;;-0.69;51.29;101741.33;1784140;80;20888;-75
2022/03/11 10:56:35;;;;;;;7.08;4.90;;;;;;;-0.78;51.53;101742.14;1783772;80;20971;-74
2022/03/11 10:59:07;;;;;;;8.35;4.85;;;;;;;-0.64;51.50;101752.10;1783786;79;20999;-74
2022/03/11 11:01:43;;;;;;;6.78;4.12;;;;;;;-0.34;51.18;101723.86;1783886;80;21316;-75
2022/03/11 11:04:14;;;;;;;6.50;4.75;;;;;;;-0.26;50.61;101747.95;1783776;80;20931;-74
2022/03/11 11:06:41;;;;;;;6.47;4.47;;;;;;;-0.38;50.24;101743.59;1783733;80;20888;-75
2022/03/11 11:09:11;;;;;;;8.75;5.35;;;;;;;-0.51;50.08;101727.26;1783814;80;20951;-75
2022/03/11 11:11:40;;;;;;;6.37;4.97;;;;;;;-0.70;50.66;101745.63;1783794;80;20907;-74
2022/03/11 11:14:12;;;;;;;7.53;4.90;;;;;;;-0.74;51.15;101743.88;1783843;80;21406;-73
2022/03/11 11:16:48;;;;;;;7.90;5.10;;;;;;;-0.77;50.71;101740.45;1783414;80;20896;-74
2022/03/11 11:19:19;;;;;;;7.47;4.58;;;;;;;-0.73;50.81;101752.06;1783872;80;21389;-73
2022/03/11 11:21:49;;;;;;;6.95;4.47;;;;;;;-0.73;51.32;101735.32;1783777;80;20845;-74
2022/03/11 11:24:24;;;;;;;9.78;5.62;;;;;;;-0.74;50.78;101753.33;1784190;80;21366;-74
2022/03/11 11:26:55;;;;;;;11.97;5.33;;;;;;;-0.85;51.07;101745.55;1783843;80;21518;-74
2022/03/11 11:29:27;;;;;;;6.10;4.30;;;;;;;-1.00;52.07;101740.31;1783621;80;20967;-74
2022/03/11 11:31:57;;;;;;;5.17;4.00;;;;;;;-1.10;52.15;101746.70;1783703;80;21053;-74